sensor_id;sensor_type;location;lat;lon;timestamp;P1;durP1;ratioP1;P2;durP2;ratioP2
8574;SDS011;4325;42.520;27.448;2024-02-16T00:02:04;9.43;;;5.83;;
8574;SDS011;4325;42.520;27.448;2024-02-16T00:04:33;6.50;;;5.13;;
8574;SDS011;4325;42.520;27.448;2024-02-16T00:07:00;9.23;;;4.93;;
8574;SDS011;4325;42.520;27.448;2024-02-16T00:09:27;9.37;;;6.03;;
8574;SDS011;4325;42.520;27.448;2024-02-16T00:11:54;11.23;;;5.63;;
8574;SDS011;4325;42.520;27.448;2024-02-16T00:14:21;7.87;;;5.73;;
8574;SDS011;4325;42.520;27.448;2024-02-16T00:16:48;10.17;;;5.97;;
8574;SDS011;4325;42.520;27.448;2024-02-16T00:19:15;9.20;;;5.43;;
8574;SDS011;4325;42.520;27.448;2024-02-16T00:21:44;10.07;;;5.83;;
8574;SDS011;4325;42.520;27.448;2024-02-16T00:24:11;9.77;;;6.20;;
8574;SDS011;4325;42.520;27.448;2024-02-16T00:26:38;9.90;;;6.43;;
8574;SDS011;4325;42.520;27.448;2024-02-16T00:29:05;9.93;;;6.57;;
8574;SDS011;4325;42.520;27.448;2024-02-16T00:31:32;9.60;;;6.27;;
8574;SDS011;4325;42.520;27.448;2024-02-16T00:33:59;15.53;;;7.00;;
8574;SDS011;4325;42.520;27.448;2024-02-16T00:36:26;11.10;;;5.50;;
8574;SDS011;4325;42.520;27.448;2024-02-16T00:38:57;11.70;;;6.67;;
8574;SDS011;4325;42.520;27.448;2024-02-16T00:41:24;8.30;;;5.90;;
8574;SDS011;4325;42.520;27.448;2024-02-16T00:43:51;10.20;;;6.50;;
8574;SDS011;4325;42.520;27.448;2024-02-16T00:46:18;13.37;;;7.60;;
8574;SDS011;4325;42.520;27.448;2024-02-16T00:48:48;11.50;;;6.80;;
8574;SDS011;4325;42.520;27.448;2024-02-16T00:51:15;12.87;;;6.63;;
8574;SDS011;4325;42.520;27.448;2024-02-16T00:53:42;10.10;;;6.50;;
8574;SDS011;4325;42.520;27.448;2024-02-16T00:56:11;10.33;;;6.50;;
8574;SDS011;4325;42.520;27.448;2024-02-16T00:58:39;11.70;;;6.73;;
8574;SDS011;4325;42.520;27.448;2024-02-16T01:01:07;11.87;;;7.17;;
8574;SDS011;4325;42.520;27.448;2024-02-16T01:03:37;11.47;;;6.60;;
8574;SDS011;4325;42.520;27.448;2024-02-16T01:06:04;11.57;;;7.13;;
8574;SDS011;4325;42.520;27.448;2024-02-16T01:08:34;11.60;;;7.17;;
8574;SDS011;4325;42.520;27.448;2024-02-16T01:11:01;12.13;;;7.67;;
8574;SDS011;4325;42.520;27.448;2024-02-16T01:13:29;10.67;;;6.40;;
8574;SDS011;4325;42.520;27.448;2024-02-16T01:15:57;10.90;;;6.87;;
8574;SDS011;4325;42.520;27.448;2024-02-16T01:18:25;10.20;;;6.70;;
8574;SDS011;4325;42.520;27.448;2024-02-16T01:20:52;11.37;;;6.80;;
8574;SDS011;4325;42.520;27.448;2024-02-16T01:23:19;14.43;;;7.13;;
8574;SDS011;4325;42.520;27.448;2024-02-16T01:25:46;11.93;;;6.67;;
8574;SDS011;4325;42.520;27.448;2024-02-16T01:28:14;11.20;;;5.77;;
8574;SDS011;4325;42.520;27.448;2024-02-16T01:30:42;11.87;;;7.27;;
8574;SDS011;4325;42.520;27.448;2024-02-16T01:33:09;12.30;;;6.63;;
8574;SDS011;4325;42.520;27.448;2024-02-16T01:35:37;10.27;;;6.53;;
8574;SDS011;4325;42.520;27.448;2024-02-16T01:38:04;10.57;;;7.00;;
8574;SDS011;4325;42.520;27.448;2024-02-16T01:40:31;11.23;;;7.07;;
8574;SDS011;4325;42.520;27.448;2024-02-16T01:42:58;11.07;;;6.77;;
8574;SDS011;4325;42.520;27.448;2024-02-16T01:45:25;11.97;;;7.23;;
8574;SDS011;4325;42.520;27.448;2024-02-16T01:47:53;13.00;;;6.80;;
8574;SDS011;4325;42.520;27.448;2024-02-16T01:50:21;12.50;;;7.07;;
8574;SDS011;4325;42.520;27.448;2024-02-16T01:52:49;9.53;;;6.90;;
8574;SDS011;4325;42.520;27.448;2024-02-16T01:55:17;12.20;;;6.83;;
8574;SDS011;4325;42.520;27.448;2024-02-16T01:57:44;15.27;;;7.17;;
8574;SDS011;4325;42.520;27.448;2024-02-16T02:00:12;11.20;;;7.30;;
8574;SDS011;4325;42.520;27.448;2024-02-16T02:02:43;13.37;;;7.37;;
8574;SDS011;4325;42.520;27.448;2024-02-16T02:05:13;11.30;;;6.70;;
8574;SDS011;4325;42.520;27.448;2024-02-16T02:07:40;16.97;;;7.23;;
8574;SDS011;4325;42.520;27.448;2024-02-16T02:10:08;9.33;;;5.87;;
8574;SDS011;4325;42.520;27.448;2024-02-16T02:12:37;11.63;;;7.00;;
8574;SDS011;4325;42.520;27.448;2024-02-16T02:15:05;10.13;;;6.30;;
8574;SDS011;4325;42.520;27.448;2024-02-16T02:17:32;15.73;;;7.53;;
8574;SDS011;4325;42.520;27.448;2024-02-16T02:19:59;10.27;;;6.63;;
8574;SDS011;4325;42.520;27.448;2024-02-16T02:22:29;11.90;;;7.93;;
8574;SDS011;4325;42.520;27.448;2024-02-16T02:24:56;14.03;;;6.80;;
8574;SDS011;4325;42.520;27.448;2024-02-16T02:27:23;15.13;;;7.43;;
8574;SDS011;4325;42.520;27.448;2024-02-16T02:29:50;13.93;;;6.73;;
8574;SDS011;4325;42.520;27.448;2024-02-16T02:32:17;12.10;;;7.07;;
8574;SDS011;4325;42.520;27.448;2024-02-16T02:34:44;14.10;;;6.97;;
8574;SDS011;4325;42.520;27.448;2024-02-16T02:37:11;13.70;;;7.80;;
8574;SDS011;4325;42.520;27.448;2024-02-16T02:39:40;14.93;;;7.30;;
8574;SDS011;4325;42.520;27.448;2024-02-16T02:42:07;10.97;;;7.23;;
8574;SDS011;4325;42.520;27.448;2024-02-16T02:44:35;12.77;;;7.70;;
8574;SDS011;4325;42.520;27.448;2024-02-16T02:47:02;13.00;;;7.53;;
8574;SDS011;4325;42.520;27.448;2024-02-16T02:49:29;12.67;;;7.17;;
8574;SDS011;4325;42.520;27.448;2024-02-16T02:51:58;12.70;;;7.50;;
8574;SDS011;4325;42.520;27.448;2024-02-16T02:54:25;13.33;;;6.83;;
8574;SDS011;4325;42.520;27.448;2024-02-16T02:56:53;11.70;;;7.70;;
8574;SDS011;4325;42.520;27.448;2024-02-16T02:59:20;13.50;;;7.60;;
8574;SDS011;4325;42.520;27.448;2024-02-16T03:01:47;14.03;;;7.70;;
8574;SDS011;4325;42.520;27.448;2024-02-16T03:04:14;14.27;;;7.17;;
8574;SDS011;4325;42.520;27.448;2024-02-16T03:06:41;14.77;;;7.00;;
8574;SDS011;4325;42.520;27.448;2024-02-16T03:09:10;11.23;;;7.10;;
8574;SDS011;4325;42.520;27.448;2024-02-16T03:11:37;11.43;;;7.20;;
8574;SDS011;4325;42.520;27.448;2024-02-16T03:14:06;13.90;;;7.10;;
8574;SDS011;4325;42.520;27.448;2024-02-16T03:16:33;12.10;;;6.93;;
8574;SDS011;4325;42.520;27.448;2024-02-16T03:19:00;9.70;;;6.63;;
8574;SDS011;4325;42.520;27.448;2024-02-16T03:21:27;11.70;;;7.10;;
8574;SDS011;4325;42.520;27.448;2024-02-16T03:23:54;13.93;;;6.63;;
8574;SDS011;4325;42.520;27.448;2024-02-16T03:26:21;11.93;;;6.93;;
8574;SDS011;4325;42.520;27.448;2024-02-16T03:28:48;14.17;;;7.00;;
8574;SDS011;4325;42.520;27.448;2024-02-16T03:31:18;10.27;;;6.27;;
8574;SDS011;4325;42.520;27.448;2024-02-16T03:33:45;10.90;;;6.63;;
8574;SDS011;4325;42.520;27.448;2024-02-16T03:36:13;10.97;;;6.90;;
8574;SDS011;4325;42.520;27.448;2024-02-16T03:38:43;10.77;;;6.50;;
8574;SDS011;4325;42.520;27.448;2024-02-16T03:41:12;11.50;;;6.97;;
8574;SDS011;4325;42.520;27.448;2024-02-16T03:43:39;12.20;;;7.27;;
8574;SDS011;4325;42.520;27.448;2024-02-16T03:46:06;11.27;;;6.70;;
8574;SDS011;4325;42.520;27.448;2024-02-16T03:48:34;17.37;;;7.53;;
8574;SDS011;4325;42.520;27.448;2024-02-16T03:51:01;11.60;;;6.60;;
8574;SDS011;4325;42.520;27.448;2024-02-16T03:53:29;10.40;;;6.30;;
8574;SDS011;4325;42.520;27.448;2024-02-16T03:55:56;8.60;;;6.47;;
8574;SDS011;4325;42.520;27.448;2024-02-16T03:58:23;9.47;;;6.27;;
8574;SDS011;4325;42.520;27.448;2024-02-16T04:00:51;9.53;;;6.00;;
8574;SDS011;4325;42.520;27.448;2024-02-16T04:03:19;8.53;;;5.63;;
8574;SDS011;4325;42.520;27.448;2024-02-16T04:05:47;12.00;;;7.13;;
8574;SDS011;4325;42.520;27.448;2024-02-16T04:08:14;15.40;;;8.57;;
8574;SDS011;4325;42.520;27.448;2024-02-16T04:10:41;10.27;;;6.60;;
8574;SDS011;4325;42.520;27.448;2024-02-16T04:13:08;9.80;;;5.83;;
8574;SDS011;4325;42.520;27.448;2024-02-16T04:15:35;8.33;;;5.70;;
8574;SDS011;4325;42.520;27.448;2024-02-16T04:18:03;8.00;;;5.27;;
8574;SDS011;4325;42.520;27.448;2024-02-16T04:20:32;7.83;;;5.80;;
8574;SDS011;4325;42.520;27.448;2024-02-16T04:23:00;8.97;;;5.67;;
8574;SDS011;4325;42.520;27.448;2024-02-16T04:25:28;8.87;;;6.03;;
8574;SDS011;4325;42.520;27.448;2024-02-16T04:27:55;9.00;;;5.27;;
8574;SDS011;4325;42.520;27.448;2024-02-16T04:30:22;8.37;;;5.20;;
8574;SDS011;4325;42.520;27.448;2024-02-16T04:32:49;10.90;;;5.70;;
8574;SDS011;4325;42.520;27.448;2024-02-16T04:35:16;7.57;;;4.73;;
8574;SDS011;4325;42.520;27.448;2024-02-16T04:37:43;8.03;;;5.27;;
8574;SDS011;4325;42.520;27.448;2024-02-16T04:40:12;7.60;;;5.03;;
8574;SDS011;4325;42.520;27.448;2024-02-16T04:42:39;9.43;;;5.67;;
8574;SDS011;4325;42.520;27.448;2024-02-16T04:45:07;9.33;;;6.00;;
8574;SDS011;4325;42.520;27.448;2024-02-16T04:47:37;9.43;;;5.50;;
8574;SDS011;4325;42.520;27.448;2024-02-16T04:50:04;8.13;;;4.73;;
8574;SDS011;4325;42.520;27.448;2024-02-16T04:52:35;5.17;;;4.43;;
8574;SDS011;4325;42.520;27.448;2024-02-16T04:55:03;13.37;;;6.40;;
8574;SDS011;4325;42.520;27.448;2024-02-16T04:57:33;8.03;;;5.30;;
8574;SDS011;4325;42.520;27.448;2024-02-16T05:00:00;8.67;;;5.50;;
8574;SDS011;4325;42.520;27.448;2024-02-16T05:02:27;9.23;;;5.70;;
8574;SDS011;4325;42.520;27.448;2024-02-16T05:04:54;9.47;;;6.00;;
8574;SDS011;4325;42.520;27.448;2024-02-16T05:07:21;8.23;;;4.97;;
8574;SDS011;4325;42.520;27.448;2024-02-16T05:09:48;7.63;;;5.43;;
8574;SDS011;4325;42.520;27.448;2024-02-16T05:12:20;8.50;;;5.20;;
8574;SDS011;4325;42.520;27.448;2024-02-16T05:14:49;8.07;;;4.97;;
8574;SDS011;4325;42.520;27.448;2024-02-16T05:17:18;10.53;;;6.57;;
8574;SDS011;4325;42.520;27.448;2024-02-16T05:19:45;8.07;;;5.43;;
8574;SDS011;4325;42.520;27.448;2024-02-16T05:22:12;9.10;;;5.57;;
8574;SDS011;4325;42.520;27.448;2024-02-16T05:24:40;9.00;;;6.53;;
8574;SDS011;4325;42.520;27.448;2024-02-16T05:27:07;9.87;;;6.10;;
8574;SDS011;4325;42.520;27.448;2024-02-16T05:29:36;10.50;;;6.33;;
8574;SDS011;4325;42.520;27.448;2024-02-16T05:32:04;9.10;;;5.67;;
8574;SDS011;4325;42.520;27.448;2024-02-16T05:34:32;10.33;;;5.60;;
8574;SDS011;4325;42.520;27.448;2024-02-16T05:37:03;9.87;;;5.73;;
8574;SDS011;4325;42.520;27.448;2024-02-16T05:39:31;8.50;;;5.40;;
8574;SDS011;4325;42.520;27.448;2024-02-16T05:42:01;8.83;;;6.37;;
8574;SDS011;4325;42.520;27.448;2024-02-16T05:44:28;8.13;;;5.57;;
8574;SDS011;4325;42.520;27.448;2024-02-16T05:46:58;7.73;;;5.37;;
8574;SDS011;4325;42.520;27.448;2024-02-16T05:49:26;8.47;;;5.60;;
8574;SDS011;4325;42.520;27.448;2024-02-16T05:51:53;10.77;;;5.97;;
8574;SDS011;4325;42.520;27.448;2024-02-16T05:54:37;6.90;;;4.93;;
8574;SDS011;4325;42.520;27.448;2024-02-16T05:57:05;7.97;;;5.50;;
8574;SDS011;4325;42.520;27.448;2024-02-16T05:59:34;8.23;;;5.47;;
8574;SDS011;4325;42.520;27.448;2024-02-16T06:02:01;8.53;;;5.53;;
8574;SDS011;4325;42.520;27.448;2024-02-16T06:04:30;7.87;;;5.40;;
8574;SDS011;4325;42.520;27.448;2024-02-16T06:06:57;9.57;;;5.30;;
8574;SDS011;4325;42.520;27.448;2024-02-16T06:09:24;8.87;;;5.73;;
8574;SDS011;4325;42.520;27.448;2024-02-16T06:11:59;7.90;;;5.20;;
8574;SDS011;4325;42.520;27.448;2024-02-16T06:14:29;10.17;;;5.93;;
8574;SDS011;4325;42.520;27.448;2024-02-16T06:16:56;8.60;;;5.13;;
8574;SDS011;4325;42.520;27.448;2024-02-16T06:19:24;7.27;;;5.47;;
8574;SDS011;4325;42.520;27.448;2024-02-16T06:21:52;10.93;;;6.63;;
8574;SDS011;4325;42.520;27.448;2024-02-16T06:24:21;11.10;;;6.53;;
8574;SDS011;4325;42.520;27.448;2024-02-16T06:26:48;9.30;;;5.43;;
8574;SDS011;4325;42.520;27.448;2024-02-16T06:29:15;8.93;;;5.97;;
8574;SDS011;4325;42.520;27.448;2024-02-16T06:31:42;8.20;;;5.17;;
8574;SDS011;4325;42.520;27.448;2024-02-16T06:34:09;7.87;;;5.13;;
8574;SDS011;4325;42.520;27.448;2024-02-16T06:36:36;8.47;;;5.50;;
8574;SDS011;4325;42.520;27.448;2024-02-16T06:39:04;8.20;;;6.00;;
8574;SDS011;4325;42.520;27.448;2024-02-16T06:41:31;9.20;;;6.00;;
8574;SDS011;4325;42.520;27.448;2024-02-16T06:43:59;8.47;;;5.80;;
8574;SDS011;4325;42.520;27.448;2024-02-16T06:46:26;11.07;;;6.10;;
8574;SDS011;4325;42.520;27.448;2024-02-16T06:48:54;10.80;;;5.60;;
8574;SDS011;4325;42.520;27.448;2024-02-16T06:51:22;8.83;;;6.00;;
8574;SDS011;4325;42.520;27.448;2024-02-16T06:53:50;10.97;;;6.20;;
8574;SDS011;4325;42.520;27.448;2024-02-16T06:56:19;9.80;;;5.50;;
8574;SDS011;4325;42.520;27.448;2024-02-16T06:58:46;10.50;;;5.77;;
8574;SDS011;4325;42.520;27.448;2024-02-16T07:01:13;12.57;;;6.73;;
8574;SDS011;4325;42.520;27.448;2024-02-16T07:03:41;11.03;;;5.70;;
8574;SDS011;4325;42.520;27.448;2024-02-16T07:06:09;11.57;;;6.50;;
8574;SDS011;4325;42.520;27.448;2024-02-16T07:08:38;8.57;;;5.50;;
8574;SDS011;4325;42.520;27.448;2024-02-16T07:11:05;8.20;;;5.63;;
8574;SDS011;4325;42.520;27.448;2024-02-16T07:13:34;13.60;;;5.73;;
8574;SDS011;4325;42.520;27.448;2024-02-16T07:16:03;8.60;;;4.97;;
8574;SDS011;4325;42.520;27.448;2024-02-16T07:18:32;8.97;;;6.07;;
8574;SDS011;4325;42.520;27.448;2024-02-16T07:20:59;12.40;;;5.60;;
8574;SDS011;4325;42.520;27.448;2024-02-16T07:23:27;8.43;;;5.50;;
8574;SDS011;4325;42.520;27.448;2024-02-16T07:25:54;8.63;;;5.27;;
8574;SDS011;4325;42.520;27.448;2024-02-16T07:28:21;7.97;;;5.23;;
8574;SDS011;4325;42.520;27.448;2024-02-16T07:30:50;9.43;;;5.37;;
8574;SDS011;4325;42.520;27.448;2024-02-16T07:33:18;9.93;;;5.50;;
8574;SDS011;4325;42.520;27.448;2024-02-16T07:35:45;9.27;;;5.17;;
8574;SDS011;4325;42.520;27.448;2024-02-16T07:38:12;13.13;;;5.90;;
8574;SDS011;4325;42.520;27.448;2024-02-16T07:40:39;7.93;;;5.27;;
8574;SDS011;4325;42.520;27.448;2024-02-16T07:43:06;6.27;;;4.63;;
8574;SDS011;4325;42.520;27.448;2024-02-16T07:45:33;10.97;;;4.80;;
8574;SDS011;4325;42.520;27.448;2024-02-16T07:48:02;7.70;;;4.70;;
8574;SDS011;4325;42.520;27.448;2024-02-16T07:50:30;12.27;;;4.87;;
8574;SDS011;4325;42.520;27.448;2024-02-16T07:52:57;7.33;;;4.93;;
8574;SDS011;4325;42.520;27.448;2024-02-16T07:55:24;7.17;;;4.70;;
8574;SDS011;4325;42.520;27.448;2024-02-16T07:57:51;7.70;;;4.93;;
8574;SDS011;4325;42.520;27.448;2024-02-16T08:00:19;7.33;;;4.63;;
8574;SDS011;4325;42.520;27.448;2024-02-16T08:02:46;7.23;;;4.57;;
8574;SDS011;4325;42.520;27.448;2024-02-16T08:05:14;7.63;;;4.70;;
8574;SDS011;4325;42.520;27.448;2024-02-16T08:07:44;6.83;;;4.40;;
8574;SDS011;4325;42.520;27.448;2024-02-16T08:10:12;6.23;;;4.03;;
8574;SDS011;4325;42.520;27.448;2024-02-16T08:12:39;5.97;;;3.60;;
8574;SDS011;4325;42.520;27.448;2024-02-16T08:15:07;6.87;;;4.27;;
8574;SDS011;4325;42.520;27.448;2024-02-16T08:17:36;6.13;;;3.70;;
8574;SDS011;4325;42.520;27.448;2024-02-16T08:20:03;8.60;;;4.30;;
8574;SDS011;4325;42.520;27.448;2024-02-16T08:22:33;5.53;;;4.30;;
8574;SDS011;4325;42.520;27.448;2024-02-16T08:25:01;5.60;;;3.50;;
8574;SDS011;4325;42.520;27.448;2024-02-16T08:27:28;5.27;;;3.50;;
8574;SDS011;4325;42.520;27.448;2024-02-16T08:29:55;6.40;;;3.37;;
8574;SDS011;4325;42.520;27.448;2024-02-16T08:32:22;5.30;;;3.80;;
8574;SDS011;4325;42.520;27.448;2024-02-16T08:34:49;8.03;;;3.87;;
8574;SDS011;4325;42.520;27.448;2024-02-16T08:37:18;6.57;;;4.07;;
8574;SDS011;4325;42.520;27.448;2024-02-16T08:39:47;6.27;;;3.13;;
8574;SDS011;4325;42.520;27.448;2024-02-16T08:42:14;10.30;;;3.27;;
8574;SDS011;4325;42.520;27.448;2024-02-16T08:44:41;4.37;;;3.50;;
8574;SDS011;4325;42.520;27.448;2024-02-16T08:47:08;4.97;;;3.10;;
8574;SDS011;4325;42.520;27.448;2024-02-16T08:49:35;4.83;;;3.60;;
8574;SDS011;4325;42.520;27.448;2024-02-16T08:52:06;3.50;;;3.07;;
8574;SDS011;4325;42.520;27.448;2024-02-16T08:54:33;3.93;;;2.97;;
8574;SDS011;4325;42.520;27.448;2024-02-16T08:57:01;5.03;;;3.27;;
8574;SDS011;4325;42.520;27.448;2024-02-16T08:59:28;4.33;;;3.03;;
8574;SDS011;4325;42.520;27.448;2024-02-16T09:01:55;3.80;;;3.33;;
8574;SDS011;4325;42.520;27.448;2024-02-16T09:04:23;9.33;;;3.53;;
8574;SDS011;4325;42.520;27.448;2024-02-16T09:06:51;6.33;;;3.43;;
8574;SDS011;4325;42.520;27.448;2024-02-16T09:09:18;5.83;;;3.80;;
8574;SDS011;4325;42.520;27.448;2024-02-16T09:11:45;4.67;;;3.37;;
8574;SDS011;4325;42.520;27.448;2024-02-16T09:14:14;4.70;;;3.20;;
8574;SDS011;4325;42.520;27.448;2024-02-16T09:16:41;4.17;;;3.20;;
8574;SDS011;4325;42.520;27.448;2024-02-16T09:19:08;12.83;;;3.57;;
8574;SDS011;4325;42.520;27.448;2024-02-16T09:21:36;4.77;;;3.33;;
8574;SDS011;4325;42.520;27.448;2024-02-16T09:24:03;5.17;;;3.23;;
8574;SDS011;4325;42.520;27.448;2024-02-16T09:26:35;3.83;;;2.67;;
8574;SDS011;4325;42.520;27.448;2024-02-16T09:29:02;3.60;;;2.57;;
8574;SDS011;4325;42.520;27.448;2024-02-16T09:31:31;4.00;;;2.90;;
8574;SDS011;4325;42.520;27.448;2024-02-16T09:33:58;4.00;;;2.83;;
8574;SDS011;4325;42.520;27.448;2024-02-16T09:36:25;5.10;;;3.13;;
8574;SDS011;4325;42.520;27.448;2024-02-16T09:38:52;4.73;;;2.97;;
8574;SDS011;4325;42.520;27.448;2024-02-16T09:41:19;4.73;;;3.10;;
8574;SDS011;4325;42.520;27.448;2024-02-16T09:43:46;3.83;;;2.87;;
8574;SDS011;4325;42.520;27.448;2024-02-16T09:46:13;5.27;;;2.93;;
8574;SDS011;4325;42.520;27.448;2024-02-16T09:48:45;4.00;;;3.30;;
8574;SDS011;4325;42.520;27.448;2024-02-16T09:51:17;5.73;;;3.37;;
8574;SDS011;4325;42.520;27.448;2024-02-16T09:53:47;5.00;;;3.57;;
8574;SDS011;4325;42.520;27.448;2024-02-16T09:56:19;5.77;;;3.17;;
8574;SDS011;4325;42.520;27.448;2024-02-16T09:58:46;5.83;;;3.13;;
8574;SDS011;4325;42.520;27.448;2024-02-16T10:01:17;5.63;;;2.87;;
8574;SDS011;4325;42.520;27.448;2024-02-16T10:03:47;6.17;;;3.97;;
8574;SDS011;4325;42.520;27.448;2024-02-16T10:06:15;9.80;;;3.97;;
8574;SDS011;4325;42.520;27.448;2024-02-16T10:08:49;4.03;;;3.00;;
8574;SDS011;4325;42.520;27.448;2024-02-16T10:11:17;4.17;;;3.00;;
8574;SDS011;4325;42.520;27.448;2024-02-16T10:13:55;4.80;;;3.00;;
8574;SDS011;4325;42.520;27.448;2024-02-16T10:16:26;5.10;;;3.03;;
8574;SDS011;4325;42.520;27.448;2024-02-16T10:18:55;5.73;;;3.57;;
8574;SDS011;4325;42.520;27.448;2024-02-16T10:21:23;4.00;;;2.90;;
8574;SDS011;4325;42.520;27.448;2024-02-16T10:23:59;6.70;;;2.97;;
8574;SDS011;4325;42.520;27.448;2024-02-16T10:26:27;5.13;;;3.23;;
8574;SDS011;4325;42.520;27.448;2024-02-16T10:28:55;5.17;;;3.37;;
8574;SDS011;4325;42.520;27.448;2024-02-16T10:31:23;4.30;;;3.30;;
8574;SDS011;4325;42.520;27.448;2024-02-16T10:33:57;4.33;;;2.97;;
8574;SDS011;4325;42.520;27.448;2024-02-16T10:36:27;3.63;;;3.00;;
8574;SDS011;4325;42.520;27.448;2024-02-16T10:38:55;5.43;;;3.23;;
8574;SDS011;4325;42.520;27.448;2024-02-16T10:41:26;6.90;;;3.67;;
8574;SDS011;4325;42.520;27.448;2024-02-16T10:43:56;9.17;;;3.50;;
8574;SDS011;4325;42.520;27.448;2024-02-16T10:46:23;4.83;;;3.13;;
8574;SDS011;4325;42.520;27.448;2024-02-16T10:48:50;3.37;;;2.90;;
8574;SDS011;4325;42.520;27.448;2024-02-16T10:51:22;3.90;;;3.13;;
8574;SDS011;4325;42.520;27.448;2024-02-16T10:53:52;5.77;;;3.33;;
8574;SDS011;4325;42.520;27.448;2024-02-16T10:56:31;4.17;;;2.80;;
8574;SDS011;4325;42.520;27.448;2024-02-16T10:59:00;3.83;;;2.80;;
8574;SDS011;4325;42.520;27.448;2024-02-16T11:01:36;4.63;;;2.97;;
8574;SDS011;4325;42.520;27.448;2024-02-16T11:04:05;5.23;;;3.40;;
8574;SDS011;4325;42.520;27.448;2024-02-16T11:09:27;5.87;;;3.17;;
8574;SDS011;4325;42.520;27.448;2024-02-16T11:11:55;5.07;;;3.23;;
8574;SDS011;4325;42.520;27.448;2024-02-16T11:14:33;4.70;;;3.60;;
8574;SDS011;4325;42.520;27.448;2024-02-16T11:17:01;5.03;;;3.20;;
8574;SDS011;4325;42.520;27.448;2024-02-16T11:19:29;5.80;;;3.53;;
8574;SDS011;4325;42.520;27.448;2024-02-16T11:21:58;6.33;;;4.10;;
8574;SDS011;4325;42.520;27.448;2024-02-16T11:24:32;8.73;;;3.60;;
8574;SDS011;4325;42.520;27.448;2024-02-16T11:27:02;6.03;;;3.70;;
8574;SDS011;4325;42.520;27.448;2024-02-16T11:29:31;6.13;;;3.63;;
8574;SDS011;4325;42.520;27.448;2024-02-16T11:31:59;5.57;;;2.90;;
8574;SDS011;4325;42.520;27.448;2024-02-16T11:34:27;6.00;;;3.87;;
8574;SDS011;4325;42.520;27.448;2024-02-16T11:36:55;5.77;;;3.13;;
8574;SDS011;4325;42.520;27.448;2024-02-16T11:39:25;5.80;;;3.17;;
8574;SDS011;4325;42.520;27.448;2024-02-16T11:41:59;8.07;;;5.00;;
8574;SDS011;4325;42.520;27.448;2024-02-16T11:44:27;5.43;;;2.97;;
8574;SDS011;4325;42.520;27.448;2024-02-16T11:46:55;4.27;;;3.07;;
8574;SDS011;4325;42.520;27.448;2024-02-16T11:49:22;6.43;;;3.37;;
8574;SDS011;4325;42.520;27.448;2024-02-16T11:51:49;7.50;;;3.77;;
8574;SDS011;4325;42.520;27.448;2024-02-16T11:54:16;5.10;;;3.37;;
8574;SDS011;4325;42.520;27.448;2024-02-16T11:56:45;4.80;;;3.43;;
8574;SDS011;4325;42.520;27.448;2024-02-16T11:59:13;7.70;;;3.10;;
8574;SDS011;4325;42.520;27.448;2024-02-16T12:01:50;5.23;;;3.50;;
8574;SDS011;4325;42.520;27.448;2024-02-16T12:04:22;5.10;;;3.60;;
8574;SDS011;4325;42.520;27.448;2024-02-16T12:06:52;5.87;;;3.60;;
8574;SDS011;4325;42.520;27.448;2024-02-16T12:09:21;9.10;;;3.53;;
8574;SDS011;4325;42.520;27.448;2024-02-16T12:11:51;5.60;;;3.70;;
8574;SDS011;4325;42.520;27.448;2024-02-16T12:14:20;6.03;;;3.50;;
8574;SDS011;4325;42.520;27.448;2024-02-16T12:16:49;5.77;;;3.97;;
8574;SDS011;4325;42.520;27.448;2024-02-16T12:19:16;5.13;;;3.77;;
8574;SDS011;4325;42.520;27.448;2024-02-16T12:21:48;7.03;;;3.73;;
8574;SDS011;4325;42.520;27.448;2024-02-16T12:24:15;6.87;;;4.47;;
8574;SDS011;4325;42.520;27.448;2024-02-16T12:26:42;9.70;;;5.90;;
8574;SDS011;4325;42.520;27.448;2024-02-16T12:29:11;6.53;;;3.80;;
8574;SDS011;4325;42.520;27.448;2024-02-16T12:31:39;5.77;;;3.77;;
8574;SDS011;4325;42.520;27.448;2024-02-16T12:34:06;5.70;;;3.80;;
8574;SDS011;4325;42.520;27.448;2024-02-16T12:36:33;7.40;;;4.33;;
8574;SDS011;4325;42.520;27.448;2024-02-16T12:39:01;5.63;;;3.80;;
8574;SDS011;4325;42.520;27.448;2024-02-16T12:41:28;11.27;;;4.03;;
8574;SDS011;4325;42.520;27.448;2024-02-16T12:43:56;5.97;;;3.97;;
8574;SDS011;4325;42.520;27.448;2024-02-16T12:46:25;8.63;;;3.70;;
8574;SDS011;4325;42.520;27.448;2024-02-16T12:48:53;8.07;;;4.00;;
8574;SDS011;4325;42.520;27.448;2024-02-16T12:51:20;6.80;;;4.40;;
8574;SDS011;4325;42.520;27.448;2024-02-16T12:53:47;6.63;;;4.20;;
8574;SDS011;4325;42.520;27.448;2024-02-16T12:56:14;13.63;;;4.00;;
8574;SDS011;4325;42.520;27.448;2024-02-16T12:58:42;4.97;;;3.63;;
8574;SDS011;4325;42.520;27.448;2024-02-16T13:01:09;9.17;;;4.70;;
8574;SDS011;4325;42.520;27.448;2024-02-16T13:03:37;11.30;;;3.97;;
8574;SDS011;4325;42.520;27.448;2024-02-16T13:06:05;5.27;;;3.90;;
8574;SDS011;4325;42.520;27.448;2024-02-16T13:08:32;8.97;;;3.77;;
8574;SDS011;4325;42.520;27.448;2024-02-16T13:10:59;4.70;;;3.17;;
8574;SDS011;4325;42.520;27.448;2024-02-16T13:13:27;4.93;;;3.63;;
8574;SDS011;4325;42.520;27.448;2024-02-16T13:15:54;4.97;;;3.27;;
8574;SDS011;4325;42.520;27.448;2024-02-16T13:18:23;4.83;;;3.87;;
8574;SDS011;4325;42.520;27.448;2024-02-16T13:20:51;7.13;;;3.40;;
8574;SDS011;4325;42.520;27.448;2024-02-16T13:23:18;7.47;;;3.20;;
8574;SDS011;4325;42.520;27.448;2024-02-16T13:25:45;6.23;;;3.80;;
8574;SDS011;4325;42.520;27.448;2024-02-16T13:28:12;4.83;;;3.23;;
8574;SDS011;4325;42.520;27.448;2024-02-16T13:30:41;4.30;;;3.13;;
8574;SDS011;4325;42.520;27.448;2024-02-16T13:33:08;8.60;;;3.90;;
8574;SDS011;4325;42.520;27.448;2024-02-16T13:35:35;7.20;;;3.93;;
8574;SDS011;4325;42.520;27.448;2024-02-16T13:38:04;5.90;;;3.90;;
8574;SDS011;4325;42.520;27.448;2024-02-16T13:40:31;6.73;;;4.07;;
8574;SDS011;4325;42.520;27.448;2024-02-16T13:43:01;8.67;;;4.00;;
8574;SDS011;4325;42.520;27.448;2024-02-16T13:45:29;6.50;;;3.97;;
8574;SDS011;4325;42.520;27.448;2024-02-16T13:48:13;7.40;;;4.73;;
8574;SDS011;4325;42.520;27.448;2024-02-16T13:50:40;6.63;;;4.27;;
8574;SDS011;4325;42.520;27.448;2024-02-16T13:53:08;5.40;;;3.87;;
8574;SDS011;4325;42.520;27.448;2024-02-16T13:55:35;6.00;;;4.30;;
8574;SDS011;4325;42.520;27.448;2024-02-16T13:58:03;7.33;;;4.30;;
8574;SDS011;4325;42.520;27.448;2024-02-16T14:00:30;7.77;;;4.40;;
8574;SDS011;4325;42.520;27.448;2024-02-16T14:02:57;8.37;;;4.70;;
8574;SDS011;4325;42.520;27.448;2024-02-16T14:05:24;7.00;;;4.20;;
8574;SDS011;4325;42.520;27.448;2024-02-16T14:07:51;7.17;;;4.47;;
8574;SDS011;4325;42.520;27.448;2024-02-16T14:10:20;9.00;;;4.60;;
8574;SDS011;4325;42.520;27.448;2024-02-16T14:12:47;8.77;;;4.13;;
8574;SDS011;4325;42.520;27.448;2024-02-16T14:15:14;6.50;;;4.57;;
8574;SDS011;4325;42.520;27.448;2024-02-16T14:17:41;6.37;;;4.03;;
8574;SDS011;4325;42.520;27.448;2024-02-16T14:20:09;8.00;;;4.57;;
8574;SDS011;4325;42.520;27.448;2024-02-16T14:22:36;6.50;;;4.50;;
8574;SDS011;4325;42.520;27.448;2024-02-16T14:25:04;12.13;;;4.87;;
8574;SDS011;4325;42.520;27.448;2024-02-16T14:27:32;8.30;;;5.00;;
8574;SDS011;4325;42.520;27.448;2024-02-16T14:29:59;8.83;;;5.20;;
8574;SDS011;4325;42.520;27.448;2024-02-16T14:32:27;7.87;;;5.07;;
8574;SDS011;4325;42.520;27.448;2024-02-16T14:34:54;7.33;;;4.47;;
8574;SDS011;4325;42.520;27.448;2024-02-16T14:37:21;9.40;;;4.80;;
8574;SDS011;4325;42.520;27.448;2024-02-16T14:39:48;8.73;;;5.80;;
8574;SDS011;4325;42.520;27.448;2024-02-16T14:42:17;7.80;;;5.27;;
8574;SDS011;4325;42.520;27.448;2024-02-16T14:44:45;10.70;;;6.27;;
8574;SDS011;4325;42.520;27.448;2024-02-16T14:47:12;12.17;;;6.87;;
8574;SDS011;4325;42.520;27.448;2024-02-16T14:49:39;11.53;;;6.00;;
8574;SDS011;4325;42.520;27.448;2024-02-16T14:52:06;9.23;;;5.50;;
8574;SDS011;4325;42.520;27.448;2024-02-16T14:54:34;9.53;;;5.97;;
8574;SDS011;4325;42.520;27.448;2024-02-16T14:57:01;11.40;;;6.40;;
8574;SDS011;4325;42.520;27.448;2024-02-16T14:59:29;10.73;;;7.27;;
8574;SDS011;4325;42.520;27.448;2024-02-16T15:01:57;10.50;;;6.70;;
8574;SDS011;4325;42.520;27.448;2024-02-16T15:04:26;11.13;;;6.50;;
8574;SDS011;4325;42.520;27.448;2024-02-16T15:06:53;10.07;;;6.07;;